Buckingham, United Kingdom
Current Conditions -  °F | °C
As of 1:20 PM on Thursday 30 Oct 2014 (Local Time) from EGTC Reporting Station
Broken Clouds Broken Clouds  
Wind Chill: 63°   Ceiling: 1500
Heat Index: 63°   Visibility: 6mi
Dew Point: 61°   Wind: 12mph
Humidity: 94%   Direction: 220°SW
Pressure: 30.06"   Gusts: NA
Location:  52°N, 0.99°W
Report Text: EGTC 301320Z 22010KT 9999 BKN015 17/16 Q1018
Loading
Personal Weather Stations






























Interactive Weather Map
Tropical Storm Tracking
New forecast layout! Learn more

10-Day Weather Forecast

Advertisements
Track Severe Weather on mobile